Time;durP1;ratioP1;P1;durP2;ratioP2;P2;SDS_P1;SDS_P2;PMS_P1;PMS_P2;Temp;Humidity;BMP_temperature;BMP_pressure;BME280_temperature;BME280_humidity;BME280_pressure;Samples;Min_cycle;Max_cycle;Signal;HPM_P1;HPM_P2
2022/04/22 00:03:09;;;;;;;10.93;7.47;;;;;;;14.98;50.33;99730.56;2113932;93;26300;-74
2022/04/22 00:06:44;;;;;;;11.12;7.03;;;;;;;14.99;50.30;99723.59;2112456;90;25892;-76
2022/04/22 00:10:16;;;;;;;8.75;6.92;;;;;;;14.98;50.31;99723.13;2114872;93;26652;-76
2022/04/22 00:13:45;;;;;;;12.23;7.37;;;;;;;14.98;50.33;99726.63;2117760;92;26363;-76
2022/04/22 00:17:17;;;;;;;10.68;7.37;;;;;;;14.97;50.33;99726.65;2127277;93;26432;-76
2022/04/22 00:20:50;;;;;;;12.68;7.47;;;;;;;14.97;50.34;99730.59;2126920;91;25846;-76
2022/04/22 00:24:26;;;;;;;8.40;6.85;;;;;;;14.96;50.34;99727.09;2060850;93;25866;-76
2022/04/22 00:27:55;;;;;;;7.70;6.87;;;;;;;14.95;50.37;99722.73;2060961;96;26094;-76
2022/04/22 00:31:32;;;;;;;;;;;;;;;;;;;;;
2022/04/22 00:35:02;;;;;;;12.53;9.03;;;;;;;14.95;50.40;99727.98;2074821;92;25719;-75
2022/04/22 00:38:27;;;;;;;13.22;8.28;;;;;;;14.94;50.42;99726.22;1992284;99;31209;-76
2022/04/22 00:41:56;;;;;;;14.80;8.88;;;;;;;14.93;50.42;99725.80;1992171;97;25776;-74
2022/04/22 00:45:22;;;;;;;10.32;7.42;;;;;;;14.92;50.43;99721.44;1992799;98;26459;-75
2022/04/22 00:48:43;;;;;;;9.35;7.50;;;;;;;14.92;50.45;99727.09;1992542;97;25723;-74
2022/04/22 00:52:27;;;;;;;10.82;7.97;;;;;;;14.92;50.48;99729.72;1992937;98;25806;-74
2022/04/22 00:55:54;;;;;;;10.80;7.10;;;;;;;14.90;50.50;99720.56;1951979;98;25780;-75
2022/04/22 00:59:20;;;;;;;8.98;8.00;;;;;;;14.90;50.53;99718.37;1952185;99;26221;-74
2022/04/22 01:02:43;;;;;;;8.50;7.35;;;;;;;14.87;50.54;99718.81;2001043;97;25781;-75
2022/04/22 01:09:59;;;;;;;9.18;6.30;;;;;;;14.85;50.62;99708.78;2083112;94;25786;-76
2022/04/22 01:13:24;;;;;;;8.45;7.45;;;;;;;14.85;50.65;99711.84;2079509;94;25754;-76
2022/04/22 01:16:55;;;;;;;8.05;6.90;;;;;;;14.84;50.68;99720.13;2161050;91;25788;-74
2022/04/22 01:20:19;;;;;;;8.08;6.75;;;;;;;14.82;50.73;99717.97;2224270;86;25747;-76
2022/04/22 01:23:49;;;;;;;9.38;7.05;;;;;;;14.81;50.79;99717.96;2281761;85;25701;-75
2022/04/22 01:27:19;;;;;;;6.40;5.80;;;;;;;14.81;50.82;99716.65;2275871;85;25661;-76
2022/04/22 01:30:59;;;;;;;8.00;6.50;;;;;;;14.80;50.86;99722.34;2281301;85;25718;-75
2022/04/22 01:34:21;;;;;;;6.65;5.95;;;;;;;14.80;50.91;99726.73;2281649;85;25733;-74
2022/04/22 01:37:55;;;;;;;6.20;5.60;;;;;;;14.78;50.92;99727.16;2253217;86;25699;-74
2022/04/22 01:41:27;;;;;;;13.18;6.45;;;;;;;14.75;51.02;99725.44;2281640;86;25659;-75
2022/04/22 01:44:51;;;;;;;6.05;5.28;;;;;;;14.76;51.06;99721.06;2280051;85;25631;-75
2022/04/22 01:48:12;;;;;;;6.50;5.80;;;;;;;14.77;51.05;99726.73;2232823;85;26240;-75
2022/04/22 01:51:36;;;;;;;7.47;5.50;;;;;;;14.74;51.14;99725.43;2281994;85;25626;-76
2022/04/22 01:55:09;;;;;;;6.17;5.03;;;;;;;14.74;51.25;99722.80;2281611;86;25673;-76
2022/04/22 01:58:27;;;;;;;4.00;3.70;;;;;;;14.72;51.34;99722.83;2279851;85;25728;-75
2022/04/22 02:01:59;;;;;;;5.87;5.30;;;;;;;14.72;51.43;99729.39;2281842;85;31068;-76
2022/04/22 02:05:25;;;;;;;4.78;4.37;;;;;;;14.70;51.53;99727.19;2254021;86;25697;-76
2022/04/22 02:08:48;;;;;;;5.72;4.50;;;;;;;14.68;51.64;99716.27;2281037;85;25821;-76
2022/04/22 02:12:12;;;;;;;6.97;4.25;;;;;;;14.67;51.75;99716.70;2276033;85;25643;-76
2022/04/22 02:15:39;;;;;;;5.90;4.10;;;;;;;14.64;51.81;99714.96;2281661;85;25704;-76
2022/04/22 02:19:07;;;;;;;8.50;4.55;;;;;;;14.65;51.87;99714.55;2281584;85;25687;-75
2022/04/22 02:22:43;;;;;;;3.95;3.65;;;;;;;14.64;51.92;99716.27;2274265;86;25744;-76
2022/04/22 02:26:17;;;;;;;4.15;3.75;;;;;;;14.63;52.00;99716.30;2277820;85;25665;-76
2022/04/22 02:29:43;;;;;;;4.85;3.22;;;;;;;14.62;52.04;99719.36;2281213;85;25591;-76
2022/04/22 02:33:04;;;;;;;4.80;3.00;;;;;;;14.63;52.10;99726.78;2281891;85;25666;-76
2022/04/22 02:36:35;;;;;;;;;;;;;;;;;;;;;
2022/04/22 02:40:01;;;;;;;5.33;3.65;;;;;;;14.61;52.21;99724.59;2278604;85;25626;-74
2022/04/22 02:47:18;;;;;;;2.52;2.33;;;;;;;14.59;52.36;99731.17;2281294;85;25626;-75
2022/04/22 02:51:05;;;;;;;3.00;2.70;;;;;;;14.58;52.38;99736.44;2280627;85;25185;-76
2022/04/22 02:54:26;;;;;;;2.17;1.98;;;;;;;14.54;52.50;99731.61;2281750;86;25650;-75
2022/04/22 03:01:10;;;;;;;1.77;1.65;;;;;;;14.51;52.58;99734.68;2199311;88;25799;-75
2022/04/22 03:04:49;;;;;;;;;;;;;;;;;;;;;
2022/04/22 03:08:06;;;;;;;1.95;1.50;;;;;;;14.47;52.60;99734.23;2121028;93;25295;-75
2022/04/22 03:11:40;;;;;;;;;;;;;;;14.45;52.77;99729.00;2119248;91;25779;-75
2022/04/22 03:14:57;;;;;;;1.50;1.40;;;;;;;14.45;52.85;99733.38;2119953;91;25727;-75
2022/04/22 03:18:31;;;;;;;3.90;1.25;;;;;;;14.41;52.84;99733.83;2121793;93;25777;-81
2022/04/22 03:21:56;;;;;;;2.37;1.30;;;;;;;14.39;52.86;99736.88;2118183;91;25760;-76
2022/04/22 03:25:20;;;;;;;1.72;1.10;;;;;;;14.33;52.88;99728.58;2101640;93;25738;-76
2022/04/22 03:29:00;;;;;;;2.75;0.80;;;;;;;14.35;52.91;99734.70;2120537;91;26031;-77
2022/04/22 03:32:34;;;;;;;;;;;;;;;;;;;;;
2022/04/22 03:35:50;;;;;;;1.00;0.90;;;;;;;14.32;52.97;99746.50;2089790;91;25997;-77
2022/04/22 03:39:21;;;;;;;1.92;0.90;;;;;;;14.30;53.02;99747.38;2123200;91;25736;-76
2022/04/22 03:42:59;;;;;;;1.37;0.98;;;;;;;14.28;53.06;99738.22;2124100;91;25770;-76
2022/04/22 03:46:36;;;;;;;;;;;;;;;;;;;;;
2022/04/22 03:50:05;;;;;;;1.05;0.75;;;;;;;14.23;53.19;99749.13;2103082;92;25923;-76
2022/04/22 03:53:26;;;;;;;1.20;0.85;;;;;;;14.18;53.20;99730.80;2172823;89;25732;-75
2022/04/22 04:00:34;;;;;;;;;;;;;;;14.18;53.24;99747.84;2099524;93;25920;-76
2022/04/22 04:04:06;;;;;;;1.42;1.32;;;;;;;14.17;53.27;99753.97;2129942;91;25781;-76
2022/04/22 04:07:41;;;;;;;0.68;0.62;;;;;;;14.15;53.24;99759.64;2195432;89;26523;-76
2022/04/22 04:18:22;;;;;;;0.90;0.68;;;;;;;14.14;53.32;99759.62;2173164;89;25750;-75
2022/04/22 04:25:46;;;;;;;0.78;0.78;;;;;;;14.12;53.29;99762.26;2226862;87;25700;-75
2022/04/22 04:29:06;;;;;;;0.70;0.70;;;;;;;14.12;53.30;99751.77;2233381;86;25839;-75
2022/04/22 04:32:27;;;;;;;1.67;0.60;;;;;;;13.97;53.26;99741.28;2251973;87;25800;-77
2022/04/22 04:35:55;;;;;;;0.78;0.65;;;;;;;14.11;53.31;99759.66;2267502;85;30871;-75
2022/04/22 04:39:30;;;;;;;0.80;0.80;;;;;;;14.12;53.32;99760.95;2250967;86;25719;-75
2022/04/22 04:42:57;;;;;;;0.93;0.80;;;;;;;14.15;53.30;99759.64;2267424;86;25728;-76
2022/04/22 04:46:23;;;;;;;1.05;0.80;;;;;;;14.21;53.27;99751.31;2266673;87;25825;-76
2022/04/22 04:50:10;;;;;;;;;;;;;;;;;;;;;
2022/04/22 04:53:41;;;;;;;1.00;0.90;;;;;;;14.28;53.24;99744.77;2267166;86;25888;-76
2022/04/22 04:57:11;;;;;;;;;;;;;;;14.43;53.01;99761.34;2198075;87;25975;-75
2022/04/22 05:00:32;;;;;;;1.15;0.93;;;;;;;14.56;52.99;99768.34;2267205;85;25806;-76
2022/04/22 05:03:53;;;;;;;2.40;1.05;;;;;;;14.67;52.91;99773.56;2267817;85;25728;-76
2022/04/22 05:07:21;;;;;;;1.32;1.22;;;;;;;14.79;52.69;99774.84;2267730;85;30869;-76
2022/04/22 05:10:51;;;;;;;1.62;1.40;;;;;;;14.85;52.56;99789.27;2266107;86;25768;-76
2022/04/22 05:14:12;;;;;;;2.15;1.60;;;;;;;14.94;52.39;99781.78;2266621;85;25640;-76
2022/04/22 05:17:38;;;;;;;2.12;1.55;;;;;;;15.00;52.24;99778.69;2266604;85;25771;-76
2022/04/22 05:20:59;;;;;;;1.87;1.42;;;;;;;15.05;52.09;99781.28;2266869;85;25743;-76
2022/04/22 05:24:23;;;;;;;2.12;1.92;;;;;;;15.08;51.91;99790.02;2266486;86;30969;-79
2022/04/22 05:27:58;;;;;;;2.08;1.98;;;;;;;15.09;51.76;99794.86;2266767;85;25957;-77
2022/04/22 05:35:09;;;;;;;2.85;2.65;;;;;;;15.04;51.49;99805.36;2236185;87;25646;-75
2022/04/22 05:38:34;;;;;;;3.25;2.33;;;;;;;15.04;51.29;99800.11;2281136;85;25711;-76
2022/04/22 05:42:02;;;;;;;2.85;2.65;;;;;;;15.05;51.16;99814.09;2287228;85;26402;-75
2022/04/22 05:45:31;;;;;;;3.20;2.90;;;;;;;15.05;50.95;99808.44;2319315;83;25635;-76
2022/04/22 05:49:01;;;;;;;2.50;2.30;;;;;;;15.04;50.89;99801.86;2310075;83;25689;-76
2022/04/22 05:52:32;;;;;;;3.27;2.97;;;;;;;15.06;50.80;99806.23;2321364;84;30873;-76
2022/04/22 05:56:02;;;;;;;3.27;3.08;;;;;;;15.11;50.71;99808.39;2319828;84;25671;-76
2022/04/22 05:59:26;;;;;;;5.28;3.25;;;;;;;15.15;50.56;99803.99;2319303;84;25636;-75
2022/04/22 06:02:48;;;;;;;4.08;2.65;;;;;;;15.22;50.49;99810.09;2320122;83;25849;-76
2022/04/22 06:06:11;;;;;;;2.83;2.62;;;;;;;15.31;50.45;99818.80;2319433;85;25689;-76
2022/04/22 06:13:20;;;;;;;2.40;2.20;;;;;;;15.47;50.68;99820.92;2307391;83;25684;-75
2022/04/22 06:16:57;;;;;;;2.33;2.20;;;;;;;15.59;50.77;99814.71;2331124;83;30935;-76
2022/04/22 06:20:19;;;;;;;2.40;2.20;;;;;;;15.71;50.74;99825.20;2352591;83;25669;-76
2022/04/22 06:23:45;;;;;;;5.58;2.22;;;;;;;15.96;50.60;99823.29;2351550;83;25682;-76
2022/04/22 06:27:37;;;;;;;2.42;2.20;;;;;;;16.21;50.54;99833.16;2301520;85;25850;-76
2022/04/22 06:31:09;;;;;;;2.20;2.00;;;;;;;16.48;50.49;99833.36;2276940;85;25934;-77
2022/04/22 06:34:39;;;;;;;2.35;2.15;;;;;;;16.81;50.34;99831.33;2282411;85;26009;-78
2022/04/22 06:38:01;;;;;;;3.08;1.92;;;;;;;17.13;50.07;99830.08;2285199;84;25742;-76
2022/04/22 06:48:43;;;;;;;2.40;2.20;;;;;;;18.07;48.59;99836.29;2201540;89;25876;-77
2022/04/22 06:52:23;;;;;;;2.60;2.40;;;;;;;19.59;47.63;99838.30;2176951;89;26023;-77
2022/04/22 06:55:53;;;;;;;1.75;1.65;;;;;;;22.42;44.44;99838.95;2209898;88;25802;-77
2022/04/22 07:03:01;;;;;;;1.75;1.65;;;;;;;24.95;40.19;99851.36;2044795;94;25808;-78
2022/04/22 07:06:31;;;;;;;1.92;1.57;;;;;;;27.17;37.96;99857.17;2062541;94;25845;-76
2022/04/22 07:10:08;;;;;;;1.40;1.30;;;;;;;27.17;36.76;99850.48;2062925;94;25911;-83
2022/04/22 07:13:43;;;;;;;3.58;1.32;;;;;;;28.09;35.94;99849.90;2033909;95;25334;-83
2022/04/22 07:17:08;;;;;;;1.50;1.40;;;;;;;27.50;35.43;99850.43;2036762;94;25982;-83
2022/04/22 07:20:41;;;;;;;2.45;1.30;;;;;;;26.43;35.99;99854.70;2088601;93;25769;-84
2022/04/22 07:24:13;;;;;;;1.12;0.95;;;;;;;25.63;36.79;99842.51;2142920;89;25843;-83
2022/04/22 07:27:52;;;;;;;;;;;;;;;;;;;;;
2022/04/22 07:31:15;;;;;;;1.40;1.30;;;;;;;24.05;38.34;99847.15;2186029;89;26117;-81
2022/04/22 07:34:52;;;;;;;1.02;1.02;;;;;;;23.45;39.24;99852.58;2176146;89;25775;-87
2022/04/22 07:38:19;;;;;;;1.37;1.27;;;;;;;23.02;39.93;99849.73;2177101;88;25800;-81
2022/04/22 07:41:47;;;;;;;1.30;1.20;;;;;;;22.60;40.62;99850.73;2131313;91;26512;-83
2022/04/22 07:49:04;;;;;;;1.55;1.40;;;;;;;22.19;41.64;99850.79;2240687;86;25599;-75
2022/04/22 07:52:36;;;;;;;1.25;1.15;;;;;;;22.64;41.61;99849.69;2238303;86;25686;-82
2022/04/22 07:55:59;;;;;;;1.40;1.30;;;;;;;23.17;41.48;99851.41;2236500;88;26036;-83
2022/04/22 07:59:33;;;;;;;1.30;1.20;;;;;;;25.55;40.15;99855.36;2237084;88;26204;-79
2022/04/22 08:03:04;;;;;;;1.52;1.42;;;;;;;26.15;38.82;99864.53;2236605;88;25705;-82
2022/04/22 08:06:30;;;;;;;2.00;1.50;;;;;;;25.91;38.09;99867.45;2216757;88;25678;-77
2022/04/22 08:09:58;;;;;;;2.92;1.57;;;;;;;25.31;37.96;99877.38;2237746;88;25852;-81
2022/04/22 08:13:26;;;;;;;2.45;1.52;;;;;;;25.28;38.01;99882.84;2237041;88;34792;-85
2022/04/22 08:17:04;;;;;;;2.87;1.80;;;;;;;25.81;37.52;99885.33;2228623;87;25764;-82
2022/04/22 08:20:24;;;;;;;1.47;1.35;;;;;;;25.47;37.15;99881.52;2208818;86;25736;-80
2022/04/22 08:23:55;;;;;;;3.27;1.90;;;;;;;24.85;37.27;99890.50;2227399;87;25761;-81
2022/04/22 08:27:24;;;;;;;6.90;2.37;;;;;;;24.44;37.50;99887.78;2146552;90;26512;-78
2022/04/22 08:30:46;;;;;;;2.92;1.70;;;;;;;24.11;37.82;99876.67;2161104;90;25675;-81
2022/04/22 08:34:10;;;;;;;2.87;1.80;;;;;;;23.74;37.86;99887.43;2161834;90;25745;-79
2022/04/22 08:37:44;;;;;;;1.65;1.40;;;;;;;23.41;38.04;99893.06;2195893;88;26224;-79
2022/04/22 08:41:15;;;;;;;1.60;1.50;;;;;;;23.59;38.52;99894.19;2186261;87;25678;-80
2022/04/22 08:44:50;;;;;;;2.70;2.37;;;;;;;24.01;37.70;99883.69;2182892;89;25851;-79
2022/04/22 08:52:17;;;;;;;2.15;1.95;;;;;;;23.53;37.66;99878.45;2133230;91;25688;-80
2022/04/22 08:55:57;;;;;;;2.77;1.32;;;;;;;23.28;37.65;99874.48;2117672;90;25936;-82
2022/04/22 08:59:26;;;;;;;1.85;1.60;;;;;;;23.12;37.73;99878.62;2096804;92;25924;-81
2022/04/22 09:02:51;;;;;;;;;;;;;;;22.97;37.80;99877.39;2105575;92;26051;-81
2022/04/22 09:06:28;;;;;;;1.72;1.35;;;;;;;23.35;37.57;99873.33;2103344;93;25802;-81
2022/04/22 09:09:52;;;;;;;3.22;1.52;;;;;;;23.68;37.28;99875.69;2102156;92;25711;-79
2022/04/22 09:13:27;;;;;;;2.00;1.90;;;;;;;23.66;37.00;99882.38;2100029;92;25709;-78
2022/04/22 09:16:50;;;;;;;4.50;1.55;;;;;;;24.31;37.07;99889.19;2094514;94;25710;-81
2022/04/22 09:20:15;;;;;;;5.40;1.60;;;;;;;25.56;36.30;99878.44;2100058;92;25730;-82
2022/04/22 09:23:40;;;;;;;1.72;1.60;;;;;;;25.72;35.58;99886.61;2101252;90;25797;-81
2022/04/22 09:27:18;;;;;;;2.25;1.52;;;;;;;25.55;35.22;99887.39;2227262;87;25676;-81
2022/04/22 09:31:07;;;;;;;1.80;1.70;;;;;;;25.19;34.95;99881.91;2218563;89;25731;-80
2022/04/22 09:34:47;;;;;;;1.50;1.40;;;;;;;25.17;34.90;99883.30;2219818;89;25783;-77
2022/04/22 09:46:34;;;;;;;1.57;1.40;;;;;;;24.48;35.19;99893.38;2203717;89;25798;-81
2022/04/22 09:50:05;;;;;;;2.58;1.72;;;;;;;24.26;35.43;99897.34;2201457;89;25968;-81
2022/04/22 09:53:39;;;;;;;1.60;1.32;;;;;;;23.94;35.90;99899.97;2198413;88;26001;-81
2022/04/22 09:57:22;;;;;;;1.17;1.07;;;;;;;23.77;36.30;99891.31;2173482;88;25748;-80
2022/04/22 10:01:06;;;;;;;1.45;1.32;;;;;;;23.68;36.62;99896.51;2176061;89;25758;-81
2022/04/22 10:04:52;;;;;;;1.45;1.35;;;;;;;23.87;36.60;99894.02;2176256;89;25759;-81
2022/04/22 10:08:28;;;;;;;1.42;1.32;;;;;;;23.68;36.50;99896.51;2165722;86;25653;-81
2022/04/22 10:15:24;;;;;;;1.60;1.50;;;;;;;24.49;36.31;99898.63;2122032;91;25838;-80
2022/04/22 10:18:53;;;;;;;2.17;1.70;;;;;;;24.67;35.67;99906.35;2119739;87;25766;-80
2022/04/22 10:22:31;;;;;;;3.02;1.47;;;;;;;25.02;35.31;99894.63;2105213;93;25759;-80
2022/04/22 10:26:22;;;;;;;2.27;1.60;;;;;;;25.74;35.02;99900.73;2062477;95;25742;-80
2022/04/22 10:29:57;;;;;;;1.20;1.10;;;;;;;26.47;34.31;99895.06;2044255;95;25745;-81
2022/04/22 10:33:53;;;;;;;1.30;1.17;;;;;;;27.54;33.91;99907.39;2062349;95;25281;-81
2022/04/22 10:37:41;;;;;;;1.60;1.50;;;;;;;27.84;33.09;99905.33;2083782;93;25813;-80
2022/04/22 10:41:35;;;;;;;1.60;1.32;;;;;;;27.60;32.57;99911.52;2121282;92;25960;-83
2022/04/22 10:49:22;;;;;;;3.65;1.75;;;;;;;26.70;32.21;99906.42;2181807;90;25830;-81
2022/04/22 10:53:43;;;;;;;5.47;1.50;;;;;;;26.23;32.30;99894.91;2136627;90;25245;-83
2022/04/22 10:57:21;;;;;;;1.30;1.20;;;;;;;25.88;32.31;99900.12;2158433;89;25897;-82
2022/04/22 11:00:53;;;;;;;3.15;1.20;;;;;;;25.72;32.45;99897.29;2181706;89;25791;-82
2022/04/22 11:04:56;;;;;;;2.35;1.40;;;;;;;25.72;32.43;99893.72;2179799;90;26454;-89
2022/04/22 11:08:51;;;;;;;5.17;1.40;;;;;;;25.67;30.90;99879.27;2136710;90;25772;-89
2022/04/22 11:13:04;;;;;;;;;;;;;;;;;;;;;
2022/04/22 11:20:31;;;;;;;1.50;1.40;;;;;;;24.49;29.62;99877.79;1921392;99;25928;-84
2022/04/22 11:24:21;;;;;;;5.53;1.50;;;;;;;24.12;30.38;99880.59;1892949;100;25974;-85
2022/04/22 11:27:48;;;;;;;2.20;1.32;;;;;;;23.84;29.85;99881.30;1838474;103;26348;-86
2022/04/22 11:31:23;;;;;;;5.10;1.60;;;;;;;23.75;29.62;99882.50;1818560;107;26577;-83
2022/04/22 11:35:20;;;;;;;2.27;1.40;;;;;;;23.74;29.28;99873.66;1817410;105;25956;-84
2022/04/22 11:39:06;;;;;;;6.58;1.60;;;;;;;23.60;29.39;99881.74;1782886;109;25937;-85
2022/04/22 11:42:56;;;;;;;5.67;1.72;;;;;;;23.28;28.93;99877.14;1748245;110;25894;-83
2022/04/22 11:46:49;;;;;;;;;;;;;;;;;;;;;
2022/04/22 11:49:55;;;;;;;3.40;2.00;;;;;;;21.98;29.62;99878.41;1734834;111;26051;-85
2022/04/22 11:53:51;;;;;;;2.20;2.00;;;;;;;21.31;29.66;99871.09;1740681;112;26038;-79
2022/04/22 11:57:21;;;;;;;3.50;1.72;;;;;;;20.86;30.03;99863.52;1778744;108;26044;-82
2022/04/22 12:08:47;;;;;;;;;;;;;;;;;;;;;
2022/04/22 12:17:05;;;;;;;2.27;2.05;;;;;;;20.65;31.87;99839.31;1734185;113;26121;-86
2022/04/22 12:20:49;;;;;;;2.37;2.02;;;;;;;21.45;31.55;99822.53;;;;
2022/04/22 12:24:17;;;;;;;2.55;2.37;;;;;;;21.60;31.03;99823.41;1689387;115;25889;-87
2022/04/22 12:28:12;;;;;;;2.15;1.95;;;;;;;22.20;30.51;99821.52;1676873;116;26019;-87
2022/04/22 12:31:50;;;;;;;2.62;1.98;;;;;;;22.62;30.59;99827.18;1675438;116;25883;-90
2022/04/22 12:35:20;;;;;;;8.13;1.80;;;;;;;22.23;29.71;99814.78;1696322;113;25842;-79
2022/04/22 12:38:52;;;;;;;4.00;2.22;;;;;;;21.61;30.46;99809.23;1693324;115;26744;-79
2022/04/22 12:42:23;;;;;;;4.62;1.55;;;;;;;21.74;31.39;99817.68;1680635;114;26018;-77
2022/04/22 12:53:37;;;;;;;2.12;1.75;;;;;;;22.21;33.16;99821.95;1781017;111;25901;-80
2022/04/22 13:01:04;;;;;;;5.83;2.05;;;;;;;22.22;34.14;99814.84;1766223;110;25586;-79
2022/04/22 13:04:31;;;;;;;2.33;1.87;;;;;;;22.19;34.73;99815.81;1754197;111;26068;-81
2022/04/22 13:08:09;;;;;;;2.83;1.80;;;;;;;22.17;35.01;99818.97;1753499;111;25972;-79
2022/04/22 13:11:44;;;;;;;2.22;1.62;;;;;;;22.15;35.32;99820.36;1832579;103;25826;-81
2022/04/22 13:15:30;;;;;;;3.27;1.90;;;;;;;22.18;35.58;99810.11;1909469;103;25811;-79
2022/04/22 13:18:54;;;;;;;1.80;1.70;;;;;;;22.18;35.83;99799.48;1881814;103;25866;-82
2022/04/22 13:22:20;;;;;;;2.47;1.80;;;;;;;22.25;36.10;99800.14;1942687;101;25860;-81
2022/04/22 13:25:44;;;;;;;2.35;1.72;;;;;;;22.34;36.19;99795.40;1925411;101;25763;-81
2022/04/22 13:29:17;;;;;;;;;;;;;;;;;;;;;
2022/04/22 13:32:37;;;;;;;1.92;1.82;;;;;;;22.45;36.67;99803.45;1924654;101;26535;-82
2022/04/22 13:36:08;;;;;;;5.45;1.80;;;;;;;22.37;36.87;99798.38;1924644;100;25430;-80
2022/04/22 13:39:51;;;;;;;2.45;1.92;;;;;;;22.26;37.03;99804.53;2016511;96;26532;-82
2022/04/22 13:43:12;;;;;;;6.15;1.70;;;;;;;22.13;37.26;99806.22;2042433;95;25888;-83
2022/04/22 13:54:30;;;;;;;5.35;2.02;;;;;;;21.78;38.13;99809.16;2169822;89;25777;-80
2022/04/22 13:58:04;;;;;;;4.10;1.82;;;;;;;21.68;38.63;99801.48;2166507;90;26010;-80
2022/04/22 14:01:39;;;;;;;6.85;2.60;;;;;;;21.60;39.14;99803.52;2089909;92;25818;-79
2022/04/22 14:05:06;;;;;;;3.65;2.70;;;;;;;21.52;39.56;99806.84;2063141;93;27348;-82
2022/04/22 14:08:35;;;;;;;5.22;3.00;;;;;;;21.41;40.38;99809.83;2063202;94;26441;-82
2022/04/22 14:15:25;;;;;;;5.42;2.62;;;;;;;21.97;41.43;99790.41;1995715;97;26047;-85
2022/04/22 14:19:06;;;;;;;11.88;3.00;;;;;;;22.10;40.96;99793.05;2030457;96;25827;-81
2022/04/22 14:22:34;;;;;;;4.90;2.95;;;;;;;22.01;40.30;99791.18;2059829;94;25747;-81
2022/04/22 14:26:18;;;;;;;9.05;2.77;;;;;;;21.90;40.22;99792.83;2083254;94;25824;-80
2022/04/22 14:29:52;;;;;;;8.43;2.70;;;;;;;21.80;39.87;99790.06;2094104;93;25959;-78
2022/04/22 14:33:24;;;;;;;5.35;2.67;;;;;;;21.71;39.89;99788.59;2069137;94;25776;-79
2022/04/22 14:36:50;;;;;;;5.47;2.47;;;;;;;21.63;39.74;99787.94;2091856;92;25848;-77
2022/04/22 14:40:15;;;;;;;10.28;2.42;;;;;;;21.52;39.74;99784.77;2083161;93;25680;-79
2022/04/22 14:43:45;;;;;;;4.72;2.45;;;;;;;21.46;39.94;99784.48;2081338;94;26388;-80
2022/04/22 14:47:17;;;;;;;7.58;2.83;;;;;;;21.40;40.12;99778.06;2104161;93;25968;-80
2022/04/22 14:50:43;;;;;;;6.47;2.00;;;;;;;21.32;40.22;99778.70;2141508;89;25891;-80
2022/04/22 14:54:11;;;;;;;6.00;2.35;;;;;;;21.22;40.41;99784.27;2236619;88;25689;-78
2022/04/22 14:57:37;;;;;;;8.48;2.60;;;;;;;21.29;40.70;99787.61;2223709;86;26029;-80
2022/04/22 15:01:00;;;;;;;7.60;2.40;;;;;;;21.49;41.00;99780.87;2271132;86;25946;-81
2022/04/22 15:04:30;;;;;;;5.28;2.37;;;;;;;21.64;40.97;99773.32;2264525;87;26182;-79
2022/04/22 15:07:55;;;;;;;5.37;2.40;;;;;;;21.82;40.87;99767.02;2265830;86;25698;-80
2022/04/22 15:11:22;;;;;;;3.40;2.15;;;;;;;21.92;40.46;99767.98;2265665;86;25638;-83
2022/04/22 15:14:51;;;;;;;3.62;2.10;;;;;;;21.79;40.15;99764.45;2265806;86;25644;-79
2022/04/22 15:26:18;;;;;;;8.00;1.90;;;;;;;21.31;40.02;99758.42;2237809;87;25767;-82
2022/04/22 15:29:46;;;;;;;4.22;1.90;;;;;;;21.16;40.07;99757.97;2286287;85;25839;-81
2022/04/22 15:33:10;;;;;;;10.45;2.50;;;;;;;21.06;40.19;99753.86;2314242;85;25882;-81
2022/04/22 15:36:43;;;;;;;6.95;2.70;;;;;;;20.96;40.34;99752.39;2311822;84;25876;-81
2022/04/22 15:40:14;;;;;;;2.77;1.98;;;;;;;20.90;40.43;99751.23;2266581;86;25735;-81
2022/04/22 15:44:16;;;;;;;2.37;1.65;;;;;;;20.92;40.50;99752.94;2226111;87;25804;-81
2022/04/22 15:47:37;;;;;;;3.85;1.57;;;;;;;20.92;40.60;99744.09;2272012;87;25732;-81
2022/04/22 15:50:58;;;;;;;4.28;1.70;;;;;;;20.89;40.62;99746.83;2272213;87;25977;-78
2022/04/22 15:54:42;;;;;;;7.00;1.42;;;;;;;20.80;40.69;99751.95;2273581;85;25713;-80
2022/04/22 16:01:51;;;;;;;2.70;1.75;;;;;;;20.52;41.01;99747.89;2210265;89;25703;-81
2022/04/22 16:05:14;;;;;;;3.62;1.50;;;;;;;20.39;41.17;99742.47;2219902;87;25762;-82
2022/04/22 16:08:37;;;;;;;2.55;1.30;;;;;;;20.34;41.27;99739.06;2220260;89;25699;-81
2022/04/22 16:15:57;;;;;;;4.92;1.40;;;;;;;20.30;41.36;99732.98;2220481;88;25852;-80
2022/04/22 16:19:24;;;;;;;2.17;1.37;;;;;;;20.23;41.49;99734.92;2209013;89;25894;-80
2022/04/22 16:22:58;;;;;;;1.65;1.10;;;;;;;20.10;41.62;99728.20;2146912;90;25883;-80
2022/04/22 16:26:37;;;;;;;1.75;1.30;;;;;;;20.00;41.77;99733.33;2145190;90;25702;-80
2022/04/22 16:30:09;;;;;;;1.57;1.02;;;;;;;19.87;41.91;99734.08;2232391;86;25733;-80
2022/04/22 16:33:42;;;;;;;3.30;1.65;;;;;;;19.75;42.09;99728.66;2340752;82;25665;-79
2022/04/22 16:37:03;;;;;;;1.92;1.40;;;;;;;19.64;42.20;99738.62;2350429;84;25650;-81
2022/04/22 16:40:34;;;;;;;1.37;1.20;;;;;;;19.54;42.31;99748.94;2352343;84;25852;-80
2022/04/22 16:44:18;;;;;;;5.47;2.00;;;;;;;19.45;42.43;99743.43;2351859;84;25625;-81
2022/04/22 16:47:40;;;;;;;1.25;1.00;;;;;;;19.34;42.58;99735.75;2350662;83;25643;-80
2022/04/22 16:51:11;;;;;;;2.50;1.27;;;;;;;19.26;42.77;99736.35;2253768;86;25729;-80
2022/04/22 16:54:36;;;;;;;1.50;1.15;;;;;;;19.19;42.86;99733.44;2250747;86;25717;-80
2022/04/22 16:58:09;;;;;;;1.32;1.22;;;;;;;19.11;42.98;99724.81;2232696;87;25815;-80
2022/04/22 17:01:39;;;;;;;1.60;1.10;;;;;;;19.03;43.15;99726.28;2255616;85;25644;-81
2022/04/22 17:05:15;;;;;;;1.65;1.00;;;;;;;18.96;43.32;99723.36;2251837;85;25799;-80
2022/04/22 17:08:52;;;;;;;4.72;1.05;;;;;;;18.88;43.45;99727.94;2252613;86;25852;-80
2022/04/22 17:12:22;;;;;;;1.82;1.50;;;;;;;18.79;43.57;99730.31;2251501;86;26184;-80
2022/04/22 17:23:29;;;;;;;2.02;0.95;;;;;;;18.57;43.88;99726.34;2297346;85;25689;-79
2022/04/22 17:26:50;;;;;;;2.47;1.20;;;;;;;18.49;43.96;99721.64;2305554;84;25721;-79
2022/04/22 17:30:21;;;;;;;8.45;2.58;;;;;;;18.42;43.96;99715.61;2274517;85;25679;-79
2022/04/22 17:33:42;;;;;;;4.22;1.07;;;;;;;18.35;44.08;99720.59;2318052;84;25678;-79
2022/04/22 17:37:07;;;;;;;5.45;0.90;;;;;;;18.29;44.12;99718.06;2317821;85;26325;-80
2022/04/22 17:40:29;;;;;;;2.35;0.95;;;;;;;18.21;44.22;99726.13;2296463;83;26299;-80
2022/04/22 17:43:50;;;;;;;1.22;1.12;;;;;;;18.14;44.36;99728.00;2272154;86;25737;-81
2022/04/22 17:47:15;;;;;;;1.72;1.00;;;;;;;18.09;44.50;99742.16;2274201;85;30908;-81
2022/04/22 17:50:51;;;;;;;5.72;1.10;;;;;;;18.03;44.58;99739.65;2316237;83;26045;-78
2022/04/22 17:54:15;;;;;;;7.12;1.77;;;;;;;17.96;44.68;99740.66;2302197;85;25998;-80
2022/04/22 17:57:35;;;;;;;12.88;1.62;;;;;;;17.89;44.78;99735.48;2292809;85;25618;-80
2022/04/22 18:01:08;;;;;;;15.53;1.90;;;;;;;17.84;44.88;99735.12;2318200;84;25833;-81
2022/04/22 18:04:42;;;;;;;19.90;1.62;;;;;;;17.77;44.97;99732.16;2287349;85;25813;-80
2022/04/22 18:08:15;;;;;;;20.82;1.95;;;;;;;17.75;45.23;99734.80;2305871;83;25721;-78
2022/04/22 18:11:50;;;;;;;15.53;1.85;;;;;;;17.73;45.36;99725.17;2338285;82;25621;-75
2022/04/22 18:18:51;;;;;;;21.62;1.87;;;;;;;17.61;45.57;99715.67;2318478;85;25695;-80
2022/04/22 18:22:17;;;;;;;20.48;2.42;;;;;;;17.56;45.67;99724.13;2310969;85;26330;-75
2022/04/22 18:25:53;;;;;;;15.85;1.90;;;;;;;17.49;45.73;99718.07;2311212;84;25899;-76
2022/04/22 18:29:27;;;;;;;16.00;2.10;;;;;;;17.43;45.82;99715.52;2310414;84;26262;-78
2022/04/22 18:32:52;;;;;;;15.15;2.80;;;;;;;17.39;45.88;99717.79;2317711;83;25771;-77
2022/04/22 18:36:33;;;;;;;17.40;2.02;;;;;;;17.33;45.96;99716.10;2215139;85;25828;-74
2022/04/22 18:40:07;;;;;;;11.00;2.35;;;;;;;17.27;46.03;99718.81;2236380;88;25412;-77
2022/04/22 18:43:38;;;;;;;17.55;2.00;;;;;;;17.22;46.14;99715.40;2220823;87;25379;-78
2022/04/22 18:47:16;;;;;;;;;;;;;;;;;;;;;
2022/04/22 18:50:41;;;;;;;12.20;2.20;;;;;;;17.11;46.26;99707.65;2174189;89;26010;-77
2022/04/22 18:54:29;;;;;;;;;;;;;;;;;;;;;
2022/04/22 18:57:51;;;;;;;8.98;2.35;;;;;;;17.02;46.46;99702.95;2171985;90;25975;-75
2022/04/22 19:01:22;;;;;;;8.28;1.60;;;;;;;16.97;46.52;99695.95;2175680;89;25287;-76
2022/04/22 19:05:03;;;;;;;;;;;;;;;;;;;;;
2022/04/22 19:08:21;;;;;;;12.45;2.08;;;;;;;16.87;46.54;99694.34;2173759;90;25927;-77
2022/04/22 19:11:49;;;;;;;7.72;2.37;;;;;;;16.83;46.55;99689.14;2059343;95;25834;-76
2022/04/22 19:15:27;;;;;;;14.10;2.52;;;;;;;16.78;46.57;99688.34;2062537;94;25781;-75